sensor_id;sensor_type;location;lat;lon;timestamp;P1;durP1;ratioP1;P2;durP2;ratioP2
28822;SDS011;15961;54.678;9.110;2024-03-23T00:54:10;16.13;;;3.10;;
28822;SDS011;15961;54.678;9.110;2024-03-23T00:56:56;16.90;;;3.63;;
28822;SDS011;15961;54.678;9.110;2024-03-23T00:59:42;18.27;;;3.08;;
28822;SDS011;15961;54.678;9.110;2024-03-23T01:02:27;15.05;;;2.80;;
28822;SDS011;15961;54.678;9.110;2024-03-23T01:05:13;18.52;;;3.85;;
28822;SDS011;15961;54.678;9.110;2024-03-23T01:07:58;20.02;;;4.10;;
28822;SDS011;15961;54.678;9.110;2024-03-23T01:10:53;25.83;;;3.40;;
28822;SDS011;15961;54.678;9.110;2024-03-23T01:13:42;27.17;;;3.92;;
28822;SDS011;15961;54.678;9.110;2024-03-23T01:16:28;21.05;;;3.80;;
28822;SDS011;15961;54.678;9.110;2024-03-23T01:19:13;18.27;;;3.05;;
28822;SDS011;15961;54.678;9.110;2024-03-23T01:21:59;22.10;;;3.70;;
28822;SDS011;15961;54.678;9.110;2024-03-23T01:24:45;24.42;;;4.60;;
28822;SDS011;15961;54.678;9.110;2024-03-23T01:27:30;19.77;;;4.45;;
28822;SDS011;15961;54.678;9.110;2024-03-23T01:30:16;16.05;;;3.33;;
28822;SDS011;15961;54.678;9.110;2024-03-23T01:33:01;14.93;;;2.63;;
28822;SDS011;15961;54.678;9.110;2024-03-23T01:35:48;19.83;;;3.38;;
28822;SDS011;15961;54.678;9.110;2024-03-23T01:38:33;9.88;;;2.88;;
28822;SDS011;15961;54.678;9.110;2024-03-23T01:41:19;20.38;;;3.85;;
28822;SDS011;15961;54.678;9.110;2024-03-23T01:44:05;23.08;;;3.03;;
28822;SDS011;15961;54.678;9.110;2024-03-23T01:46:54;24.92;;;4.15;;
28822;SDS011;15961;54.678;9.110;2024-03-23T01:49:40;20.40;;;3.30;;
28822;SDS011;15961;54.678;9.110;2024-03-23T01:52:26;24.38;;;3.42;;
28822;SDS011;15961;54.678;9.110;2024-03-23T01:55:15;27.58;;;4.75;;
28822;SDS011;15961;54.678;9.110;2024-03-23T01:58:01;26.75;;;3.70;;
28822;SDS011;15961;54.678;9.110;2024-03-23T02:00:47;24.05;;;4.43;;
28822;SDS011;15961;54.678;9.110;2024-03-23T02:03:32;23.35;;;4.80;;
28822;SDS011;15961;54.678;9.110;2024-03-23T02:06:18;15.55;;;3.00;;
28822;SDS011;15961;54.678;9.110;2024-03-23T02:09:04;25.50;;;4.60;;
28822;SDS011;15961;54.678;9.110;2024-03-23T02:11:50;19.10;;;3.67;;
28822;SDS011;15961;54.678;9.110;2024-03-23T02:14:36;27.40;;;5.10;;
28822;SDS011;15961;54.678;9.110;2024-03-23T02:17:22;25.17;;;3.83;;
28822;SDS011;15961;54.678;9.110;2024-03-23T02:20:07;15.43;;;3.95;;
28822;SDS011;15961;54.678;9.110;2024-03-23T02:22:53;19.17;;;4.30;;
28822;SDS011;15961;54.678;9.110;2024-03-23T02:25:39;19.83;;;3.92;;
28822;SDS011;15961;54.678;9.110;2024-03-23T02:28:25;16.52;;;2.97;;
28822;SDS011;15961;54.678;9.110;2024-03-23T02:31:10;17.33;;;3.33;;
28822;SDS011;15961;54.678;9.110;2024-03-23T02:33:56;18.48;;;3.42;;
28822;SDS011;15961;54.678;9.110;2024-03-23T02:36:42;13.48;;;3.40;;
28822;SDS011;15961;54.678;9.110;2024-03-23T02:39:27;19.90;;;3.40;;
28822;SDS011;15961;54.678;9.110;2024-03-23T02:42:13;13.85;;;3.80;;
28822;SDS011;15961;54.678;9.110;2024-03-23T02:44:59;18.95;;;3.13;;
28822;SDS011;15961;54.678;9.110;2024-03-23T02:47:45;16.80;;;3.00;;
28822;SDS011;15961;54.678;9.110;2024-03-23T02:50:30;12.00;;;3.30;;
28822;SDS011;15961;54.678;9.110;2024-03-23T02:53:16;17.65;;;2.65;;
28822;SDS011;15961;54.678;9.110;2024-03-23T02:56:02;10.63;;;3.33;;
28822;SDS011;15961;54.678;9.110;2024-03-23T02:58:48;15.38;;;3.55;;
28822;SDS011;15961;54.678;9.110;2024-03-23T03:01:34;18.95;;;2.83;;
28822;SDS011;15961;54.678;9.110;2024-03-23T03:04:19;24.13;;;3.65;;
28822;SDS011;15961;54.678;9.110;2024-03-23T03:07:05;17.85;;;3.03;;
28822;SDS011;15961;54.678;9.110;2024-03-23T03:09:51;10.55;;;3.10;;
28822;SDS011;15961;54.678;9.110;2024-03-23T03:12:37;21.23;;;3.30;;
28822;SDS011;15961;54.678;9.110;2024-03-23T03:15:23;14.63;;;2.72;;
28822;SDS011;15961;54.678;9.110;2024-03-23T03:18:08;19.42;;;3.75;;
28822;SDS011;15961;54.678;9.110;2024-03-23T03:20:54;11.85;;;2.60;;
28822;SDS011;15961;54.678;9.110;2024-03-23T03:23:40;15.55;;;2.78;;
28822;SDS011;15961;54.678;9.110;2024-03-23T03:26:26;21.13;;;3.05;;
28822;SDS011;15961;54.678;9.110;2024-03-23T03:29:12;22.02;;;3.53;;
28822;SDS011;15961;54.678;9.110;2024-03-23T03:31:57;13.27;;;4.55;;
28822;SDS011;15961;54.678;9.110;2024-03-23T03:34:43;13.80;;;2.85;;
28822;SDS011;15961;54.678;9.110;2024-03-23T03:37:29;17.42;;;2.95;;
28822;SDS011;15961;54.678;9.110;2024-03-23T03:40:14;21.95;;;3.58;;
28822;SDS011;15961;54.678;9.110;2024-03-23T03:43:00;18.63;;;2.83;;
28822;SDS011;15961;54.678;9.110;2024-03-23T03:45:55;12.98;;;3.75;;
28822;SDS011;15961;54.678;9.110;2024-03-23T03:48:42;11.77;;;3.28;;
28822;SDS011;15961;54.678;9.110;2024-03-23T03:51:30;17.20;;;3.00;;
28822;SDS011;15961;54.678;9.110;2024-03-23T03:54:15;16.58;;;3.42;;
28822;SDS011;15961;54.678;9.110;2024-03-23T03:57:01;21.48;;;3.42;;
28822;SDS011;15961;54.678;9.110;2024-03-23T03:59:47;18.60;;;3.53;;
28822;SDS011;15961;54.678;9.110;2024-03-23T04:02:32;18.77;;;3.50;;
28822;SDS011;15961;54.678;9.110;2024-03-23T04:05:18;26.05;;;3.35;;
28822;SDS011;15961;54.678;9.110;2024-03-23T04:08:05;17.63;;;2.97;;
28822;SDS011;15961;54.678;9.110;2024-03-23T04:10:52;19.42;;;2.97;;
28822;SDS011;15961;54.678;9.110;2024-03-23T04:13:38;11.60;;;3.17;;
28822;SDS011;15961;54.678;9.110;2024-03-23T04:16:33;16.63;;;3.03;;
28822;SDS011;15961;54.678;9.110;2024-03-23T04:19:19;19.73;;;4.32;;
28822;SDS011;15961;54.678;9.110;2024-03-23T04:22:05;12.95;;;3.58;;
28822;SDS011;15961;54.678;9.110;2024-03-23T04:24:51;27.58;;;4.88;;
28822;SDS011;15961;54.678;9.110;2024-03-23T04:27:40;22.33;;;3.42;;
28822;SDS011;15961;54.678;9.110;2024-03-23T04:30:27;19.77;;;3.45;;
28822;SDS011;15961;54.678;9.110;2024-03-23T04:33:14;15.60;;;3.53;;
28822;SDS011;15961;54.678;9.110;2024-03-23T04:36:00;24.90;;;3.78;;
28822;SDS011;15961;54.678;9.110;2024-03-23T04:38:46;16.98;;;3.72;;
28822;SDS011;15961;54.678;9.110;2024-03-23T04:41:31;18.45;;;4.30;;
28822;SDS011;15961;54.678;9.110;2024-03-23T04:44:17;24.58;;;3.47;;
28822;SDS011;15961;54.678;9.110;2024-03-23T04:47:02;13.45;;;2.83;;
28822;SDS011;15961;54.678;9.110;2024-03-23T04:49:48;14.85;;;3.75;;
28822;SDS011;15961;54.678;9.110;2024-03-23T04:52:34;13.10;;;4.55;;
28822;SDS011;15961;54.678;9.110;2024-03-23T04:55:20;13.73;;;3.80;;
28822;SDS011;15961;54.678;9.110;2024-03-23T04:58:07;24.58;;;3.92;;
28822;SDS011;15961;54.678;9.110;2024-03-23T05:00:57;14.80;;;3.78;;
28822;SDS011;15961;54.678;9.110;2024-03-23T05:03:42;15.32;;;2.90;;
28822;SDS011;15961;54.678;9.110;2024-03-23T05:06:28;18.30;;;4.30;;
28822;SDS011;15961;54.678;9.110;2024-03-23T05:09:14;18.45;;;3.70;;
28822;SDS011;15961;54.678;9.110;2024-03-23T05:12:00;19.73;;;3.38;;
28822;SDS011;15961;54.678;9.110;2024-03-23T05:14:45;23.35;;;4.60;;
28822;SDS011;15961;54.678;9.110;2024-03-23T05:17:31;16.33;;;3.97;;
28822;SDS011;15961;54.678;9.110;2024-03-23T05:20:18;28.55;;;5.43;;
28822;SDS011;15961;54.678;9.110;2024-03-23T05:23:04;19.55;;;3.97;;
28822;SDS011;15961;54.678;9.110;2024-03-23T05:25:50;13.48;;;3.58;;
28822;SDS011;15961;54.678;9.110;2024-03-23T05:28:37;28.70;;;4.18;;
28822;SDS011;15961;54.678;9.110;2024-03-23T05:31:26;18.67;;;2.60;;
28822;SDS011;15961;54.678;9.110;2024-03-23T05:34:13;14.25;;;4.18;;
28822;SDS011;15961;54.678;9.110;2024-03-23T05:36:58;17.02;;;3.35;;
28822;SDS011;15961;54.678;9.110;2024-03-23T05:39:44;18.55;;;3.55;;
28822;SDS011;15961;54.678;9.110;2024-03-23T05:42:30;20.92;;;3.60;;
28822;SDS011;15961;54.678;9.110;2024-03-23T05:45:16;15.27;;;3.65;;
28822;SDS011;15961;54.678;9.110;2024-03-23T05:48:04;17.30;;;4.07;;
28822;SDS011;15961;54.678;9.110;2024-03-23T05:50:50;12.13;;;3.40;;
28822;SDS011;15961;54.678;9.110;2024-03-23T05:53:35;23.83;;;4.70;;
28822;SDS011;15961;54.678;9.110;2024-03-23T05:56:21;16.42;;;3.60;;
28822;SDS011;15961;54.678;9.110;2024-03-23T05:59:07;18.35;;;3.97;;
28822;SDS011;15961;54.678;9.110;2024-03-23T06:01:52;14.25;;;5.00;;
28822;SDS011;15961;54.678;9.110;2024-03-23T06:04:38;13.82;;;3.63;;
28822;SDS011;15961;54.678;9.110;2024-03-23T06:07:24;18.83;;;3.13;;
28822;SDS011;15961;54.678;9.110;2024-03-23T06:10:09;15.45;;;3.15;;
28822;SDS011;15961;54.678;9.110;2024-03-23T06:12:55;15.70;;;3.30;;
28822;SDS011;15961;54.678;9.110;2024-03-23T06:15:41;24.00;;;5.88;;
28822;SDS011;15961;54.678;9.110;2024-03-23T06:18:27;14.32;;;3.47;;
28822;SDS011;15961;54.678;9.110;2024-03-23T06:21:13;16.35;;;3.25;;
28822;SDS011;15961;54.678;9.110;2024-03-23T06:23:59;14.18;;;3.33;;
28822;SDS011;15961;54.678;9.110;2024-03-23T06:26:45;25.08;;;4.50;;
28822;SDS011;15961;54.678;9.110;2024-03-23T06:29:30;15.43;;;3.33;;
28822;SDS011;15961;54.678;9.110;2024-03-23T06:32:16;25.95;;;3.60;;
28822;SDS011;15961;54.678;9.110;2024-03-23T06:35:02;22.30;;;4.03;;
28822;SDS011;15961;54.678;9.110;2024-03-23T06:37:53;21.52;;;4.72;;
28822;SDS011;15961;54.678;9.110;2024-03-23T06:40:39;29.95;;;3.60;;
28822;SDS011;15961;54.678;9.110;2024-03-23T06:43:24;27.20;;;3.67;;
28822;SDS011;15961;54.678;9.110;2024-03-23T06:46:10;16.45;;;2.90;;
28822;SDS011;15961;54.678;9.110;2024-03-23T06:48:55;14.20;;;2.78;;
28822;SDS011;15961;54.678;9.110;2024-03-23T06:51:41;9.27;;;3.00;;
28822;SDS011;15961;54.678;9.110;2024-03-23T06:54:27;7.88;;;2.95;;
28822;SDS011;15961;54.678;9.110;2024-03-23T06:57:13;12.23;;;2.80;;
28822;SDS011;15961;54.678;9.110;2024-03-23T06:59:58;3.60;;;1.42;;
28822;SDS011;15961;54.678;9.110;2024-03-23T07:02:44;4.72;;;2.10;;
28822;SDS011;15961;54.678;9.110;2024-03-23T07:05:30;5.13;;;2.00;;
28822;SDS011;15961;54.678;9.110;2024-03-23T07:08:15;6.38;;;1.92;;
28822;SDS011;15961;54.678;9.110;2024-03-23T07:11:06;4.63;;;2.25;;
28822;SDS011;15961;54.678;9.110;2024-03-23T07:13:52;13.75;;;2.72;;
28822;SDS011;15961;54.678;9.110;2024-03-23T07:16:42;8.02;;;2.10;;
28822;SDS011;15961;54.678;9.110;2024-03-23T07:19:27;8.85;;;2.00;;
28822;SDS011;15961;54.678;9.110;2024-03-23T07:22:13;6.72;;;2.25;;
28822;SDS011;15961;54.678;9.110;2024-03-23T07:25:00;9.15;;;2.28;;
28822;SDS011;15961;54.678;9.110;2024-03-23T07:27:46;7.22;;;2.33;;
28822;SDS011;15961;54.678;9.110;2024-03-23T07:30:31;13.18;;;2.75;;
28822;SDS011;15961;54.678;9.110;2024-03-23T07:33:17;5.13;;;2.03;;
28822;SDS011;15961;54.678;9.110;2024-03-23T07:36:03;8.60;;;2.95;;
28822;SDS011;15961;54.678;9.110;2024-03-23T07:38:50;3.60;;;1.80;;
28822;SDS011;15961;54.678;9.110;2024-03-23T07:41:35;8.93;;;2.40;;
28822;SDS011;15961;54.678;9.110;2024-03-23T07:44:21;12.73;;;2.90;;
28822;SDS011;15961;54.678;9.110;2024-03-23T07:47:06;12.48;;;3.10;;
28822;SDS011;15961;54.678;9.110;2024-03-23T07:49:52;9.80;;;2.72;;
28822;SDS011;15961;54.678;9.110;2024-03-23T07:52:38;13.98;;;2.40;;
28822;SDS011;15961;54.678;9.110;2024-03-23T07:55:23;15.63;;;2.72;;
28822;SDS011;15961;54.678;9.110;2024-03-23T07:58:09;11.88;;;2.22;;
28822;SDS011;15961;54.678;9.110;2024-03-23T08:00:55;12.52;;;2.55;;
28822;SDS011;15961;54.678;9.110;2024-03-23T08:03:42;8.80;;;2.30;;
28822;SDS011;15961;54.678;9.110;2024-03-23T08:06:28;10.45;;;3.08;;
28822;SDS011;15961;54.678;9.110;2024-03-23T08:09:14;11.82;;;2.22;;
28822;SDS011;15961;54.678;9.110;2024-03-23T08:11:59;16.27;;;2.92;;
28822;SDS011;15961;54.678;9.110;2024-03-23T08:14:45;11.60;;;2.85;;
28822;SDS011;15961;54.678;9.110;2024-03-23T08:17:31;12.98;;;2.65;;
28822;SDS011;15961;54.678;9.110;2024-03-23T08:20:16;9.68;;;2.72;;
28822;SDS011;15961;54.678;9.110;2024-03-23T08:23:02;15.05;;;2.90;;
28822;SDS011;15961;54.678;9.110;2024-03-23T08:25:47;16.48;;;3.22;;
28822;SDS011;15961;54.678;9.110;2024-03-23T08:28:33;14.00;;;2.72;;
28822;SDS011;15961;54.678;9.110;2024-03-23T08:31:19;11.15;;;2.33;;
28822;SDS011;15961;54.678;9.110;2024-03-23T08:34:04;10.00;;;2.70;;
28822;SDS011;15961;54.678;9.110;2024-03-23T08:36:50;15.05;;;2.38;;
28822;SDS011;15961;54.678;9.110;2024-03-23T08:39:36;11.05;;;2.95;;
28822;SDS011;15961;54.678;9.110;2024-03-23T08:42:21;15.93;;;3.42;;
28822;SDS011;15961;54.678;9.110;2024-03-23T08:45:07;12.32;;;2.03;;
28822;SDS011;15961;54.678;9.110;2024-03-23T08:47:53;15.63;;;2.35;;
28822;SDS011;15961;54.678;9.110;2024-03-23T08:50:39;5.03;;;1.70;;
28822;SDS011;15961;54.678;9.110;2024-03-23T08:53:24;14.55;;;2.70;;
28822;SDS011;15961;54.678;9.110;2024-03-23T08:56:12;8.07;;;2.10;;
28822;SDS011;15961;54.678;9.110;2024-03-23T08:58:58;13.10;;;2.35;;
28822;SDS011;15961;54.678;9.110;2024-03-23T09:01:43;17.88;;;3.42;;
28822;SDS011;15961;54.678;9.110;2024-03-23T09:04:29;9.30;;;2.35;;
28822;SDS011;15961;54.678;9.110;2024-03-23T09:07:15;4.50;;;1.73;;
28822;SDS011;15961;54.678;9.110;2024-03-23T09:10:00;12.10;;;2.97;;
28822;SDS011;15961;54.678;9.110;2024-03-23T09:12:46;13.50;;;2.42;;
28822;SDS011;15961;54.678;9.110;2024-03-23T09:15:36;14.55;;;2.92;;
28822;SDS011;15961;54.678;9.110;2024-03-23T09:18:23;13.40;;;3.05;;
28822;SDS011;15961;54.678;9.110;2024-03-23T09:21:12;13.30;;;3.22;;
28822;SDS011;15961;54.678;9.110;2024-03-23T09:23:59;12.82;;;2.67;;
28822;SDS011;15961;54.678;9.110;2024-03-23T09:26:44;14.45;;;2.85;;
28822;SDS011;15961;54.678;9.110;2024-03-23T09:29:30;8.02;;;2.35;;
28822;SDS011;15961;54.678;9.110;2024-03-23T09:32:16;13.57;;;2.60;;
28822;SDS011;15961;54.678;9.110;2024-03-23T09:35:01;18.85;;;2.75;;
28822;SDS011;15961;54.678;9.110;2024-03-23T09:37:47;10.50;;;2.63;;
28822;SDS011;15961;54.678;9.110;2024-03-23T09:40:33;15.82;;;2.63;;
28822;SDS011;15961;54.678;9.110;2024-03-23T09:43:19;12.57;;;2.55;;
28822;SDS011;15961;54.678;9.110;2024-03-23T09:46:05;8.27;;;2.47;;
28822;SDS011;15961;54.678;9.110;2024-03-23T09:48:51;4.03;;;1.77;;
28822;SDS011;15961;54.678;9.110;2024-03-23T09:51:36;6.20;;;2.50;;
28822;SDS011;15961;54.678;9.110;2024-03-23T09:54:22;15.15;;;2.70;;
28822;SDS011;15961;54.678;9.110;2024-03-23T09:57:08;19.13;;;2.83;;
28822;SDS011;15961;54.678;9.110;2024-03-23T09:59:53;7.03;;;1.95;;
28822;SDS011;15961;54.678;9.110;2024-03-23T10:02:40;4.28;;;1.45;;
28822;SDS011;15961;54.678;9.110;2024-03-23T10:05:26;8.77;;;2.42;;
28822;SDS011;15961;54.678;9.110;2024-03-23T10:10:58;10.27;;;2.90;;
28822;SDS011;15961;54.678;9.110;2024-03-23T10:13:58;13.23;;;3.25;;
28822;SDS011;15961;54.678;9.110;2024-03-23T10:16:43;9.50;;;2.50;;
28822;SDS011;15961;54.678;9.110;2024-03-23T10:19:32;8.85;;;2.10;;
28822;SDS011;15961;54.678;9.110;2024-03-23T10:25:07;7.75;;;2.08;;
28822;SDS011;15961;54.678;9.110;2024-03-23T10:27:59;10.30;;;1.98;;
28822;SDS011;15961;54.678;9.110;2024-03-23T10:30:49;19.05;;;3.42;;
28822;SDS011;15961;54.678;9.110;2024-03-23T10:33:34;10.52;;;3.17;;
28822;SDS011;15961;54.678;9.110;2024-03-23T10:36:21;15.57;;;2.75;;
28822;SDS011;15961;54.678;9.110;2024-03-23T10:39:07;10.02;;;2.30;;
28822;SDS011;15961;54.678;9.110;2024-03-23T10:41:53;7.65;;;1.85;;
28822;SDS011;15961;54.678;9.110;2024-03-23T10:44:41;15.57;;;2.55;;
28822;SDS011;15961;54.678;9.110;2024-03-23T10:47:27;6.32;;;2.00;;
28822;SDS011;15961;54.678;9.110;2024-03-23T10:50:13;10.45;;;2.65;;
28822;SDS011;15961;54.678;9.110;2024-03-23T10:52:58;16.15;;;3.30;;
28822;SDS011;15961;54.678;9.110;2024-03-23T10:55:44;5.88;;;1.70;;
28822;SDS011;15961;54.678;9.110;2024-03-23T10:58:44;8.10;;;1.92;;
28822;SDS011;15961;54.678;9.110;2024-03-23T11:01:32;9.27;;;2.35;;
28822;SDS011;15961;54.678;9.110;2024-03-23T11:04:29;11.70;;;2.38;;
28822;SDS011;15961;54.678;9.110;2024-03-23T11:10:24;7.95;;;2.85;;
28822;SDS011;15961;54.678;9.110;2024-03-23T11:13:23;10.90;;;2.38;;
28822;SDS011;15961;54.678;9.110;2024-03-23T11:16:24;12.68;;;3.13;;
28822;SDS011;15961;54.678;9.110;2024-03-23T11:19:35;11.48;;;2.33;;
28822;SDS011;15961;54.678;9.110;2024-03-23T11:25:27;8.32;;;2.45;;
28822;SDS011;15961;54.678;9.110;2024-03-23T11:28:13;8.43;;;2.53;;
28822;SDS011;15961;54.678;9.110;2024-03-23T11:31:00;12.88;;;2.55;;
28822;SDS011;15961;54.678;9.110;2024-03-23T11:33:45;10.60;;;2.55;;
28822;SDS011;15961;54.678;9.110;2024-03-23T11:36:31;8.90;;;1.95;;
28822;SDS011;15961;54.678;9.110;2024-03-23T11:39:18;10.65;;;2.58;;
28822;SDS011;15961;54.678;9.110;2024-03-23T11:42:04;10.35;;;3.53;;
28822;SDS011;15961;54.678;9.110;2024-03-23T11:44:50;8.10;;;2.03;;
28822;SDS011;15961;54.678;9.110;2024-03-23T11:47:35;7.22;;;2.47;;
28822;SDS011;15961;54.678;9.110;2024-03-23T11:50:21;4.15;;;1.33;;
28822;SDS011;15961;54.678;9.110;2024-03-23T11:53:07;6.10;;;1.80;;
28822;SDS011;15961;54.678;9.110;2024-03-23T11:55:58;2.38;;;1.52;;
28822;SDS011;15961;54.678;9.110;2024-03-23T11:58:46;5.78;;;1.35;;
28822;SDS011;15961;54.678;9.110;2024-03-23T12:01:34;8.35;;;2.30;;
28822;SDS011;15961;54.678;9.110;2024-03-23T12:04:29;7.10;;;1.85;;
28822;SDS011;15961;54.678;9.110;2024-03-23T12:07:19;5.82;;;1.60;;
28822;SDS011;15961;54.678;9.110;2024-03-23T12:10:06;7.15;;;1.73;;
28822;SDS011;15961;54.678;9.110;2024-03-23T12:12:59;8.98;;;2.28;;
28822;SDS011;15961;54.678;9.110;2024-03-23T12:15:49;8.02;;;1.70;;
28822;SDS011;15961;54.678;9.110;2024-03-23T12:18:36;15.35;;;2.28;;
28822;SDS011;15961;54.678;9.110;2024-03-23T12:21:22;9.82;;;2.60;;
28822;SDS011;15961;54.678;9.110;2024-03-23T12:24:08;10.95;;;1.70;;
28822;SDS011;15961;54.678;9.110;2024-03-23T12:26:54;6.65;;;2.13;;
28822;SDS011;15961;54.678;9.110;2024-03-23T12:29:40;8.30;;;1.70;;
28822;SDS011;15961;54.678;9.110;2024-03-23T12:32:32;8.77;;;1.88;;
28822;SDS011;15961;54.678;9.110;2024-03-23T12:35:18;16.63;;;2.17;;
28822;SDS011;15961;54.678;9.110;2024-03-23T12:38:04;6.32;;;2.22;;
28822;SDS011;15961;54.678;9.110;2024-03-23T12:40:50;6.25;;;1.52;;
28822;SDS011;15961;54.678;9.110;2024-03-23T12:43:35;6.38;;;1.95;;
28822;SDS011;15961;54.678;9.110;2024-03-23T12:46:23;12.73;;;2.05;;
28822;SDS011;15961;54.678;9.110;2024-03-23T12:49:08;12.07;;;2.20;;
28822;SDS011;15961;54.678;9.110;2024-03-23T12:51:54;11.55;;;3.60;;
28822;SDS011;15961;54.678;9.110;2024-03-23T12:54:41;8.43;;;2.00;;
28822;SDS011;15961;54.678;9.110;2024-03-23T12:57:26;9.57;;;2.38;;
28822;SDS011;15961;54.678;9.110;2024-03-23T13:00:12;10.52;;;2.15;;
28822;SDS011;15961;54.678;9.110;2024-03-23T13:02:58;11.27;;;1.95;;
28822;SDS011;15961;54.678;9.110;2024-03-23T13:05:46;13.13;;;2.33;;
28822;SDS011;15961;54.678;9.110;2024-03-23T13:08:37;9.85;;;2.30;;
28822;SDS011;15961;54.678;9.110;2024-03-23T13:11:22;12.43;;;3.13;;
28822;SDS011;15961;54.678;9.110;2024-03-23T13:14:09;5.82;;;1.83;;
28822;SDS011;15961;54.678;9.110;2024-03-23T13:16:54;13.07;;;2.40;;
28822;SDS011;15961;54.678;9.110;2024-03-23T13:19:40;13.55;;;1.88;;
28822;SDS011;15961;54.678;9.110;2024-03-23T13:22:26;7.25;;;2.17;;
28822;SDS011;15961;54.678;9.110;2024-03-23T13:25:11;4.82;;;1.83;;
28822;SDS011;15961;54.678;9.110;2024-03-23T13:27:58;4.78;;;1.80;;
28822;SDS011;15961;54.678;9.110;2024-03-23T13:30:52;11.02;;;2.78;;
28822;SDS011;15961;54.678;9.110;2024-03-23T13:33:38;15.38;;;2.22;;
28822;SDS011;15961;54.678;9.110;2024-03-23T13:36:25;11.43;;;2.05;;
28822;SDS011;15961;54.678;9.110;2024-03-23T13:39:11;17.35;;;2.53;;
28822;SDS011;15961;54.678;9.110;2024-03-23T13:41:57;9.98;;;2.10;;
28822;SDS011;15961;54.678;9.110;2024-03-23T13:44:43;6.63;;;2.70;;
28822;SDS011;15961;54.678;9.110;2024-03-23T13:47:28;14.80;;;2.30;;
28822;SDS011;15961;54.678;9.110;2024-03-23T13:50:14;9.55;;;1.77;;
28822;SDS011;15961;54.678;9.110;2024-03-23T13:53:00;3.58;;;1.90;;
28822;SDS011;15961;54.678;9.110;2024-03-23T13:55:46;11.77;;;2.17;;
28822;SDS011;15961;54.678;9.110;2024-03-23T13:58:33;6.70;;;2.47;;
28822;SDS011;15961;54.678;9.110;2024-03-23T14:01:19;8.15;;;1.58;;
28822;SDS011;15961;54.678;9.110;2024-03-23T14:04:04;10.27;;;2.97;;
28822;SDS011;15961;54.678;9.110;2024-03-23T14:06:50;6.20;;;2.03;;
28822;SDS011;15961;54.678;9.110;2024-03-23T14:09:36;6.78;;;1.98;;
28822;SDS011;15961;54.678;9.110;2024-03-23T14:12:22;14.98;;;2.28;;
28822;SDS011;15961;54.678;9.110;2024-03-23T14:15:09;8.60;;;2.08;;
28822;SDS011;15961;54.678;9.110;2024-03-23T14:17:54;5.80;;;2.65;;
28822;SDS011;15961;54.678;9.110;2024-03-23T14:20:40;17.17;;;2.35;;
28822;SDS011;15961;54.678;9.110;2024-03-23T14:23:29;10.02;;;1.90;;
28822;SDS011;15961;54.678;9.110;2024-03-23T14:26:18;8.13;;;1.95;;
28822;SDS011;15961;54.678;9.110;2024-03-23T14:29:04;11.55;;;3.92;;
28822;SDS011;15961;54.678;9.110;2024-03-23T14:31:49;8.63;;;2.10;;
28822;SDS011;15961;54.678;9.110;2024-03-23T14:34:35;13.70;;;2.38;;
28822;SDS011;15961;54.678;9.110;2024-03-23T14:37:21;16.33;;;2.88;;
28822;SDS011;15961;54.678;9.110;2024-03-23T14:40:07;10.18;;;1.92;;
28822;SDS011;15961;54.678;9.110;2024-03-23T14:42:56;9.00;;;2.35;;
28822;SDS011;15961;54.678;9.110;2024-03-23T14:45:48;15.25;;;2.30;;
28822;SDS011;15961;54.678;9.110;2024-03-23T14:48:53;15.98;;;1.90;;
28822;SDS011;15961;54.678;9.110;2024-03-23T14:51:39;8.98;;;1.35;;
28822;SDS011;15961;54.678;9.110;2024-03-23T14:54:25;6.63;;;1.40;;
28822;SDS011;15961;54.678;9.110;2024-03-23T14:57:11;8.55;;;2.75;;
28822;SDS011;15961;54.678;9.110;2024-03-23T14:59:57;4.00;;;1.50;;
28822;SDS011;15961;54.678;9.110;2024-03-23T15:02:43;11.95;;;2.33;;
28822;SDS011;15961;54.678;9.110;2024-03-23T15:05:30;13.13;;;2.13;;
28822;SDS011;15961;54.678;9.110;2024-03-23T15:08:16;12.50;;;3.05;;
28822;SDS011;15961;54.678;9.110;2024-03-23T15:11:02;8.60;;;2.13;;
28822;SDS011;15961;54.678;9.110;2024-03-23T15:13:50;9.90;;;2.28;;
28822;SDS011;15961;54.678;9.110;2024-03-23T15:16:36;7.57;;;2.17;;
28822;SDS011;15961;54.678;9.110;2024-03-23T15:19:22;10.90;;;2.63;;
28822;SDS011;15961;54.678;9.110;2024-03-23T15:22:08;13.35;;;2.40;;
28822;SDS011;15961;54.678;9.110;2024-03-23T15:24:54;8.40;;;1.85;;
28822;SDS011;15961;54.678;9.110;2024-03-23T15:27:39;10.20;;;2.80;;
28822;SDS011;15961;54.678;9.110;2024-03-23T15:30:26;11.10;;;2.20;;
28822;SDS011;15961;54.678;9.110;2024-03-23T15:33:12;12.07;;;2.53;;
28822;SDS011;15961;54.678;9.110;2024-03-23T15:36:06;13.38;;;2.65;;
28822;SDS011;15961;54.678;9.110;2024-03-23T15:38:52;11.00;;;2.45;;
28822;SDS011;15961;54.678;9.110;2024-03-23T15:41:40;13.35;;;2.35;;
28822;SDS011;15961;54.678;9.110;2024-03-23T15:44:25;9.75;;;2.33;;
28822;SDS011;15961;54.678;9.110;2024-03-23T15:47:11;24.38;;;3.58;;
28822;SDS011;15961;54.678;9.110;2024-03-23T15:49:57;11.32;;;2.90;;
28822;SDS011;15961;54.678;9.110;2024-03-23T15:52:43;15.05;;;2.67;;
28822;SDS011;15961;54.678;9.110;2024-03-23T15:55:28;10.27;;;3.05;;
28822;SDS011;15961;54.678;9.110;2024-03-23T15:58:14;12.25;;;2.72;;
28822;SDS011;15961;54.678;9.110;2024-03-23T16:01:05;9.68;;;2.55;;
28822;SDS011;15961;54.678;9.110;2024-03-23T16:03:54;8.38;;;2.05;;
28822;SDS011;15961;54.678;9.110;2024-03-23T16:06:40;15.15;;;2.78;;
28822;SDS011;15961;54.678;9.110;2024-03-23T16:09:26;15.88;;;2.35;;
28822;SDS011;15961;54.678;9.110;2024-03-23T16:12:14;15.57;;;2.47;;
28822;SDS011;15961;54.678;9.110;2024-03-23T16:14:59;19.63;;;2.30;;
28822;SDS011;15961;54.678;9.110;2024-03-23T16:17:45;16.10;;;3.92;;
28822;SDS011;15961;54.678;9.110;2024-03-23T16:20:31;18.88;;;3.10;;
28822;SDS011;15961;54.678;9.110;2024-03-23T16:23:19;15.70;;;3.13;;
28822;SDS011;15961;54.678;9.110;2024-03-23T16:26:04;10.73;;;2.50;;
28822;SDS011;15961;54.678;9.110;2024-03-23T16:28:50;13.15;;;3.70;;
28822;SDS011;15961;54.678;9.110;2024-03-23T16:31:36;8.73;;;3.70;;
28822;SDS011;15961;54.678;9.110;2024-03-23T16:34:21;12.80;;;2.97;;
28822;SDS011;15961;54.678;9.110;2024-03-23T16:37:07;15.85;;;3.55;;
28822;SDS011;15961;54.678;9.110;2024-03-23T16:39:55;9.00;;;3.10;;
28822;SDS011;15961;54.678;9.110;2024-03-23T16:42:41;14.70;;;2.75;;
28822;SDS011;15961;54.678;9.110;2024-03-23T16:45:27;13.45;;;3.13;;
28822;SDS011;15961;54.678;9.110;2024-03-23T16:48:12;10.15;;;3.55;;
28822;SDS011;15961;54.678;9.110;2024-03-23T16:50:59;13.57;;;3.15;;
28822;SDS011;15961;54.678;9.110;2024-03-23T16:53:46;11.77;;;2.90;;
28822;SDS011;15961;54.678;9.110;2024-03-23T16:56:31;9.35;;;3.35;;
28822;SDS011;15961;54.678;9.110;2024-03-23T16:59:17;9.38;;;2.35;;
28822;SDS011;15961;54.678;9.110;2024-03-23T17:02:03;8.93;;;2.35;;
28822;SDS011;15961;54.678;9.110;2024-03-23T17:04:49;12.27;;;2.65;;
28822;SDS011;15961;54.678;9.110;2024-03-23T17:07:34;12.52;;;2.90;;
28822;SDS011;15961;54.678;9.110;2024-03-23T17:10:20;11.30;;;2.17;;
28822;SDS011;15961;54.678;9.110;2024-03-23T17:13:05;12.45;;;2.60;;
28822;SDS011;15961;54.678;9.110;2024-03-23T17:15:51;15.82;;;2.80;;
28822;SDS011;15961;54.678;9.110;2024-03-23T17:18:37;17.58;;;2.75;;
28822;SDS011;15961;54.678;9.110;2024-03-23T17:21:23;8.60;;;2.20;;
28822;SDS011;15961;54.678;9.110;2024-03-23T17:24:08;8.73;;;2.97;;
28822;SDS011;15961;54.678;9.110;2024-03-23T17:26:54;9.20;;;1.73;;
28822;SDS011;15961;54.678;9.110;2024-03-23T17:29:40;5.97;;;1.98;;
28822;SDS011;15961;54.678;9.110;2024-03-23T17:32:27;8.98;;;2.13;;
28822;SDS011;15961;54.678;9.110;2024-03-23T17:35:13;11.45;;;1.98;;
28822;SDS011;15961;54.678;9.110;2024-03-23T17:37:59;5.43;;;2.42;;